Time;durP1;ratioP1;P1;durP2;ratioP2;P2;SDS_P1;SDS_P2;PMS_P1;PMS_P2;Temp;Humidity;BMP_temperature;BMP_pressure;BME280_temperature;BME280_humidity;BME280_pressure;Samples;Min_cycle;Max_cycle;Signal;HPM_P1;HPM_P2
2021/05/03 00:00:09;;;;;;;12.30;7.03;;;;;;;10.83;53.34;99951.84;5022271;28;20041;-78
2021/05/03 00:02:37;;;;;;;13.20;7.45;;;;;;;10.84;53.30;99941.34;5026337;28;20596;-79
2021/05/03 00:05:17;;;;;;;13.38;7.97;;;;;;;10.69;54.14;99946.69;5047969;28;20049;-78
2021/05/03 00:07:43;;;;;;;10.95;7.63;;;;;;;10.80;53.33;99942.25;5038841;28;20545;-77
2021/05/03 00:10:10;;;;;;;11.13;7.47;;;;;;;10.85;53.37;99942.22;5074046;28;20046;-78
2021/05/03 00:12:37;;;;;;;11.25;6.93;;;;;;;10.89;53.32;99952.66;5021355;28;20356;-78
2021/05/03 00:15:04;;;;;;;11.18;8.27;;;;;;;10.78;53.78;99935.31;5041000;28;20120;-79
2021/05/03 00:17:30;;;;;;;11.40;8.07;;;;;;;10.85;53.71;99940.50;5060480;28;20049;-80
2021/05/03 00:19:57;;;;;;;10.52;8.48;;;;;;;10.45;54.95;99934.53;5025742;28;20057;-78
2021/05/03 00:22:23;;;;;;;9.02;7.15;;;;;;;10.90;53.90;99930.00;5056902;28;20162;-77
2021/05/03 00:24:50;;;;;;;10.98;7.88;;;;;;;10.66;54.75;99925.75;5044324;28;20056;-79
2021/05/03 00:27:16;;;;;;;13.25;7.95;;;;;;;10.63;54.98;99919.69;5044898;28;20127;-77
2021/05/03 00:29:43;;;;;;;13.80;8.40;;;;;;;10.63;54.91;99915.34;5058366;28;25679;-76
2021/05/03 00:32:10;;;;;;;10.90;7.68;;;;;;;10.66;54.88;99914.44;5055955;28;20051;-78
2021/05/03 00:34:37;;;;;;;12.48;7.93;;;;;;;10.35;56.25;99911.97;5049198;28;20040;-77
2021/05/03 00:37:03;;;;;;;12.90;8.43;;;;;;;10.40;56.18;99911.94;5029651;28;20135;-78
2021/05/03 00:39:30;;;;;;;11.13;8.60;;;;;;;10.00;57.57;99908.53;5058076;28;20132;-78
2021/05/03 00:41:56;;;;;;;13.32;8.27;;;;;;;10.33;56.74;99907.59;5045542;28;20052;-78
2021/05/03 00:44:25;;;;;;;12.50;8.80;;;;;;;9.99;58.00;99902.44;5054781;28;20048;-78
2021/05/03 00:46:55;;;;;;;13.80;8.80;;;;;;;9.80;58.38;99910.28;5041893;28;20085;-77
2021/05/03 00:49:21;;;;;;;14.38;9.05;;;;;;;9.77;58.82;99905.09;5041617;28;20048;-78
2021/05/03 00:51:48;;;;;;;13.05;9.02;;;;;;;9.98;58.71;99903.28;5061095;28;20121;-78
2021/05/03 00:54:15;;;;;;;12.20;8.70;;;;;;;9.75;59.12;99902.47;5065793;28;20480;-79
2021/05/03 00:56:41;;;;;;;13.50;9.43;;;;;;;9.73;59.55;99892.91;5068845;28;20466;-78
2021/05/03 00:59:08;;;;;;;11.93;8.75;;;;;;;9.77;59.37;99905.09;5046034;28;20488;-79
2021/05/03 01:01:34;;;;;;;10.88;7.57;;;;;;;9.67;59.87;99892.91;5025486;28;20041;-77
2021/05/03 01:04:01;;;;;;;10.13;7.32;;;;;;;9.73;59.97;99892.91;5041640;28;20351;-77
2021/05/03 01:06:27;;;;;;;9.52;7.10;;;;;;;10.02;59.00;99883.31;5052370;28;20481;-78
2021/05/03 01:08:54;;;;;;;14.80;7.65;;;;;;;10.18;58.57;99887.63;5032287;28;20067;-77
2021/05/03 01:11:20;;;;;;;9.80;7.18;;;;;;;10.14;58.37;99885.88;5021567;28;20065;-77
2021/05/03 01:13:47;;;;;;;14.50;7.82;;;;;;;10.23;58.49;99880.66;5049069;28;20140;-78
2021/05/03 01:16:13;;;;;;;10.50;7.85;;;;;;;9.94;59.42;99882.44;5024271;28;20060;-79
2021/05/03 01:18:40;;;;;;;13.27;8.07;;;;;;;10.03;59.29;99883.28;5038968;28;20469;-77
2021/05/03 01:21:07;;;;;;;13.88;7.57;;;;;;;10.29;58.32;99872.81;5040896;28;20056;-78
2021/05/03 01:23:34;;;;;;;8.88;7.05;;;;;;;10.18;58.56;99871.97;5054422;28;20049;-79
2021/05/03 01:26:01;;;;;;;9.73;6.78;;;;;;;10.22;58.43;99876.28;5045137;28;20042;-79
2021/05/03 01:28:28;;;;;;;10.13;6.78;;;;;;;10.12;58.61;99869.31;5070136;28;20099;-78
2021/05/03 01:30:54;;;;;;;12.50;7.30;;;;;;;10.41;57.95;99870.13;5045979;28;20072;-78
2021/05/03 01:33:21;;;;;;;8.85;7.00;;;;;;;10.42;57.70;99865.78;5046382;28;20064;-80
2021/05/03 01:35:48;;;;;;;11.63;8.32;;;;;;;10.14;58.47;99862.38;5048647;28;20102;-78
2021/05/03 01:38:15;;;;;;;9.55;6.95;;;;;;;10.19;58.29;99858.03;5074648;28;20041;-79
2021/05/03 01:40:43;;;;;;;11.57;7.55;;;;;;;9.95;59.14;99868.50;5041650;28;20057;-79
2021/05/03 01:43:17;;;;;;;9.95;6.97;;;;;;;9.89;59.54;99863.31;5044210;28;20556;-79
2021/05/03 01:45:46;;;;;;;10.65;7.50;;;;;;;10.16;58.40;99849.34;5054703;28;20056;-77
2021/05/03 01:48:16;;;;;;;10.68;7.40;;;;;;;10.28;58.12;99851.91;5043640;28;20512;-76
2021/05/03 01:50:42;;;;;;;12.90;7.63;;;;;;;10.33;57.75;99863.22;5053058;28;20054;-77
2021/05/03 01:53:11;;;;;;;10.88;7.13;;;;;;;10.17;58.50;99853.72;5076175;28;20507;-76
2021/05/03 01:55:42;;;;;;;11.48;7.13;;;;;;;10.29;58.06;99858.88;5042189;28;20104;-79
2021/05/03 02:02:16;;;;;;;9.80;8.20;;;;;;;9.80;59.58;99848.53;5042564;28;20033;-77
2021/05/03 02:04:43;;;;;;;13.85;7.90;;;;;;;9.95;59.17;99848.50;5018463;28;20052;-77
2021/05/03 02:07:09;;;;;;;13.07;7.80;;;;;;;9.65;60.24;99848.56;5061130;28;20127;-78
2021/05/03 02:09:41;;;;;;;20.33;9.77;;;;;;;9.69;60.39;99846.84;5027925;28;20052;-78
2021/05/03 02:12:08;;;;;;;11.80;9.10;;;;;;;9.76;59.90;99846.81;5034900;28;20040;-79
2021/05/03 02:14:36;;;;;;;14.00;9.27;;;;;;;9.76;59.67;99841.59;5029250;28;20056;-78
2021/05/03 02:17:02;;;;;;;13.13;9.85;;;;;;;9.68;60.22;99839.88;5046626;28;20447;-77
2021/05/03 02:19:29;;;;;;;12.00;9.35;;;;;;;9.83;60.09;99838.09;5027548;28;20134;-78
2021/05/03 02:21:55;;;;;;;14.50;10.07;;;;;;;9.70;60.45;99840.72;5021619;28;20162;-78
2021/05/03 02:24:21;;;;;;;13.63;9.20;;;;;;;9.93;59.84;99842.41;5014331;28;20048;-78
2021/05/03 02:26:48;;;;;;;15.20;9.00;;;;;;;9.64;60.62;99833.78;5053666;28;20470;-78
2021/05/03 02:29:15;;;;;;;13.82;9.50;;;;;;;9.57;60.88;99830.31;5023192;28;20086;-77
2021/05/03 02:31:42;;;;;;;12.75;9.00;;;;;;;9.61;61.45;99828.56;5046842;28;20100;-78
2021/05/03 02:34:08;;;;;;;13.57;9.45;;;;;;;9.35;61.67;99827.75;5019597;28;20156;-78
2021/05/03 02:36:36;;;;;;;11.65;8.55;;;;;;;9.70;60.86;99825.06;5021908;28;20077;-78
2021/05/03 02:39:03;;;;;;;15.70;9.05;;;;;;;9.72;60.66;99815.50;5051053;28;20050;-78
2021/05/03 02:41:31;;;;;;;10.38;7.63;;;;;;;9.93;60.11;99808.47;5023615;28;20053;-79
2021/05/03 02:43:59;;;;;;;8.40;6.57;;;;;;;9.99;59.79;99811.09;5037502;28;20061;-78
2021/05/03 02:46:27;;;;;;;9.73;6.85;;;;;;;9.76;60.51;99815.50;5026070;28;20041;-79
2021/05/03 02:48:55;;;;;;;12.63;7.53;;;;;;;10.01;59.92;99811.97;5024496;28;20145;-78
2021/05/03 02:51:23;;;;;;;11.07;7.30;;;;;;;9.92;59.75;99804.16;5025499;28;20109;-78
2021/05/03 02:53:50;;;;;;;13.95;6.05;;;;;;;10.15;59.27;99804.06;5046463;28;20053;-79
2021/05/03 02:56:17;;;;;;;9.75;6.38;;;;;;;9.95;59.74;99798.94;5042152;28;20049;-77
2021/05/03 02:58:43;;;;;;;9.45;6.82;;;;;;;10.02;59.62;99800.63;5039105;28;20550;-77
2021/05/03 03:01:10;;;;;;;7.88;5.55;;;;;;;9.98;59.58;99800.63;5034066;28;20049;-77
2021/05/03 03:03:37;;;;;;;7.53;5.18;;;;;;;10.18;59.23;99798.88;5044819;28;20633;-77
2021/05/03 03:06:03;;;;;;;9.18;5.75;;;;;;;10.27;58.94;99792.72;5026226;28;20061;-78
2021/05/03 03:08:31;;;;;;;7.43;6.13;;;;;;;9.93;60.05;99791.97;5004346;28;20046;-79
2021/05/03 03:10:57;;;;;;;10.93;6.00;;;;;;;9.81;60.52;99787.66;5040762;28;20057;-77
2021/05/03 03:13:23;;;;;;;9.88;6.00;;;;;;;10.29;58.69;99780.53;5045201;28;20056;-77
2021/05/03 03:15:50;;;;;;;8.77;5.57;;;;;;;10.06;59.60;99788.44;5036378;28;20077;-78
2021/05/03 03:18:17;;;;;;;9.02;6.18;;;;;;;10.14;59.33;99781.44;5026756;28;20052;-78
2021/05/03 03:20:44;;;;;;;6.82;5.60;;;;;;;9.57;60.83;99775.56;5000051;28;20424;-77
2021/05/03 03:23:10;;;;;;;7.13;5.70;;;;;;;9.77;60.65;99778.13;5025760;28;20389;-78
2021/05/03 03:25:37;;;;;;;10.30;6.47;;;;;;;9.85;60.48;99776.34;5037024;28;20119;-78
2021/05/03 03:28:03;;;;;;;10.63;6.28;;;;;;;9.44;61.35;99772.97;5038635;28;20053;-77
2021/05/03 03:30:32;;;;;;;9.00;6.25;;;;;;;9.51;61.60;99765.13;5004396;28;20108;-78
2021/05/03 03:32:58;;;;;;;8.73;7.05;;;;;;;9.68;61.01;99772.06;5032523;28;20065;-78
2021/05/03 03:35:28;;;;;;;12.15;5.32;;;;;;;9.65;61.23;99775.53;5020698;28;20060;-79
2021/05/03 03:37:54;;;;;;;8.73;5.15;;;;;;;9.54;61.51;99766.88;5018378;28;20072;-76
2021/05/03 03:40:22;;;;;;;7.57;5.03;;;;;;;9.75;60.66;99771.16;5008417;28;20445;-77
2021/05/03 03:42:48;;;;;;;7.97;5.60;;;;;;;9.86;60.61;99765.03;5012412;28;20053;-77
2021/05/03 03:45:16;;;;;;;8.77;5.53;;;;;;;10.12;59.99;99761.47;5007315;28;20403;-78
2021/05/03 03:47:44;;;;;;;7.10;5.15;;;;;;;10.08;60.17;99755.38;5002391;28;20094;-76
2021/05/03 03:50:11;;;;;;;9.27;5.90;;;;;;;10.08;59.98;99757.97;5058081;28;20124;-77
2021/05/03 03:52:40;;;;;;;8.98;5.25;;;;;;;10.11;59.92;99754.50;5051313;28;20546;-77
2021/05/03 03:55:07;;;;;;;8.65;5.40;;;;;;;9.90;60.41;99750.22;5025311;28;20051;-77
2021/05/03 03:57:34;;;;;;;9.10;5.50;;;;;;;10.16;59.91;99742.31;5027095;28;20141;-77
2021/05/03 04:00:02;;;;;;;7.45;5.35;;;;;;;9.49;61.75;99747.75;5026686;28;20045;-77
2021/05/03 04:02:29;;;;;;;15.93;5.53;;;;;;;9.81;61.11;99737.22;5006343;28;20060;-77
2021/05/03 04:08:13;;;;;;;9.43;5.40;;;;;;;10.05;60.54;99737.13;5025373;28;20236;-77
2021/05/03 04:26:31;;;;;;;9.18;4.25;;;;;;;9.78;61.72;99727.69;4984092;28;20137;-76
2021/05/03 04:28:58;;;;;;;7.00;4.70;;;;;;;9.94;61.04;99720.63;4989625;28;20050;-77
2021/05/03 04:31:26;;;;;;;10.65;5.05;;;;;;;9.92;61.28;99720.66;5013880;28;20057;-77
2021/05/03 04:33:53;;;;;;;6.35;4.60;;;;;;;9.82;61.59;99721.56;5010515;28;20045;-77
2021/05/03 04:36:20;;;;;;;9.38;4.70;;;;;;;10.06;61.06;99712.75;5011520;28;20049;-78
2021/05/03 04:38:47;;;;;;;6.68;4.75;;;;;;;10.37;60.34;99716.06;4990330;28;20049;-78
2021/05/03 04:41:14;;;;;;;11.73;4.63;;;;;;;10.29;60.23;99716.13;5009281;28;20147;-78
2021/05/03 04:43:40;;;;;;;16.23;4.47;;;;;;;10.43;59.85;99713.44;5000803;28;20065;-78
2021/05/03 04:46:07;;;;;;;6.05;4.22;;;;;;;10.45;59.84;99711.69;4979622;28;20062;-78
2021/05/03 04:48:33;;;;;;;10.98;5.13;;;;;;;10.57;59.56;99708.13;5000081;28;20144;-77
2021/05/03 04:51:00;;;;;;;7.10;4.88;;;;;;;10.60;59.36;99706.34;5014732;28;20049;-79
2021/05/03 04:53:27;;;;;;;6.28;4.88;;;;;;;10.57;59.45;99710.72;5006258;28;20405;-77
2021/05/03 04:55:58;;;;;;;;;;;;;;;10.82;58.59;99707.06;4996187;28;20088;-77
2021/05/03 04:58:25;;;;;;;14.68;6.53;;;;;;;10.67;59.02;99705.44;5021918;28;19928;-77
2021/05/03 05:00:51;;;;;;;9.57;6.88;;;;;;;10.54;59.52;99705.53;5007709;28;20041;-77
2021/05/03 05:03:18;;;;;;;13.95;7.45;;;;;;;10.11;61.15;99702.28;5051269;28;20049;-78
2021/05/03 05:05:49;;;;;;;10.23;7.50;;;;;;;10.12;61.30;99704.03;5005135;28;20057;-77
2021/05/03 05:08:16;;;;;;;10.88;7.47;;;;;;;10.52;59.80;99704.66;5031737;28;20059;-77
2021/05/03 05:10:43;;;;;;;8.93;7.22;;;;;;;10.50;59.88;99700.31;5026006;28;20064;-79
2021/05/03 05:13:09;;;;;;;10.55;7.68;;;;;;;10.63;59.65;99701.13;5039379;28;20412;-78
2021/05/03 05:15:36;;;;;;;11.20;7.05;;;;;;;10.87;59.36;99697.44;5062226;28;20072;-77
2021/05/03 05:18:02;;;;;;;14.00;7.15;;;;;;;11.56;57.91;99692.38;5037380;28;20045;-78
2021/05/03 05:20:28;;;;;;;8.40;6.32;;;;;;;11.74;56.60;99702.66;5083209;28;20519;-77
2021/05/03 05:22:55;;;;;;;10.88;6.70;;;;;;;11.91;55.92;99695.47;5040269;28;20118;-77
2021/05/03 05:25:22;;;;;;;6.68;5.50;;;;;;;12.07;55.57;99697.00;5021333;28;20073;-77
2021/05/03 05:27:48;;;;;;;8.93;5.18;;;;;;;11.99;55.66;99690.97;5043079;28;20060;-78
2021/05/03 05:30:15;;;;;;;6.60;5.00;;;;;;;11.17;57.84;99688.44;5041786;28;20053;-79
2021/05/03 05:32:42;;;;;;;8.13;5.18;;;;;;;12.05;55.86;99684.81;5043300;28;20052;-79
2021/05/03 05:35:09;;;;;;;11.85;6.00;;;;;;;12.68;54.64;99678.63;5058257;28;20079;-79
2021/05/03 05:37:36;;;;;;;9.00;4.63;;;;;;;12.60;53.94;99687.50;5029512;28;20049;-78
2021/05/03 05:40:04;;;;;;;7.63;4.70;;;;;;;12.24;54.83;99684.53;5059919;28;20147;-77
2021/05/03 05:42:30;;;;;;;10.13;4.90;;;;;;;12.18;54.62;99674.13;5071889;28;20052;-77
2021/05/03 05:44:57;;;;;;;11.93;5.03;;;;;;;11.91;55.51;99676.28;5066382;28;20045;-78
2021/05/03 05:47:23;;;;;;;7.55;4.63;;;;;;;12.06;55.19;99682.19;5024922;28;20488;-78
2021/05/03 05:49:49;;;;;;;8.73;4.88;;;;;;;11.91;55.85;99671.03;5028972;28;20045;-78
2021/05/03 05:52:16;;;;;;;9.30;4.90;;;;;;;12.17;55.33;99671.56;5060812;28;20148;-78
2021/05/03 05:54:42;;;;;;;10.90;5.32;;;;;;;11.91;55.79;99669.28;5040677;28;20049;-78
2021/05/03 05:57:09;;;;;;;8.93;5.75;;;;;;;11.77;56.29;99665.97;5056861;28;20484;-79
2021/05/03 05:59:35;;;;;;;12.23;6.55;;;;;;;11.59;56.59;99664.44;5037552;28;20059;-78
2021/05/03 06:02:02;;;;;;;11.45;7.10;;;;;;;11.93;55.83;99661.41;5043887;28;20501;-77
2021/05/03 06:04:28;;;;;;;12.73;6.95;;;;;;;12.06;55.52;99660.34;5041014;28;20144;-78
2021/05/03 06:06:55;;;;;;;17.98;8.30;;;;;;;11.68;56.30;99652.97;5068748;28;20056;-78
2021/05/03 06:09:22;;;;;;;9.60;7.82;;;;;;;12.01;55.81;99656.94;5066966;28;20049;-76
2021/05/03 06:11:49;;;;;;;13.82;6.70;;;;;;;11.52;57.07;99648.81;5040205;28;20159;-76
2021/05/03 06:14:15;;;;;;;16.25;7.22;;;;;;;11.99;55.66;99656.94;5018805;28;20045;-76
2021/05/03 06:16:43;;;;;;;13.88;8.00;;;;;;;11.37;57.92;99653.34;5064591;28;20133;-78
2021/05/03 06:19:09;;;;;;;13.25;7.53;;;;;;;11.29;57.76;99646.47;5038940;28;20044;-77
2021/05/03 06:21:35;;;;;;;13.80;8.90;;;;;;;11.74;57.21;99642.47;5053192;28;20055;-77
2021/05/03 06:24:02;;;;;;;14.40;10.30;;;;;;;11.39;58.13;99642.88;5038731;28;20049;-76
2021/05/03 06:26:29;;;;;;;17.45;12.00;;;;;;;11.59;57.51;99638.28;5034824;28;20053;-76
2021/05/03 06:28:58;;;;;;;16.58;12.50;;;;;;;11.94;56.56;99636.97;5048307;28;20128;-76
2021/05/03 06:31:25;;;;;;;19.55;12.30;;;;;;;12.13;56.11;99630.59;5042745;28;20069;-77
2021/05/03 06:33:52;;;;;;;20.27;12.77;;;;;;;11.72;57.00;99636.34;5039424;28;20044;-76
2021/05/03 06:36:18;;;;;;;16.10;11.10;;;;;;;12.31;55.83;99624.19;5039156;28;20120;-77
2021/05/03 06:38:44;;;;;;;19.08;13.30;;;;;;;11.88;57.49;99630.06;5045941;28;20143;-76
2021/05/03 06:41:10;;;;;;;19.02;13.65;;;;;;;12.00;56.20;99626.41;5022497;28;20427;-77
2021/05/03 06:43:37;;;;;;;19.95;13.77;;;;;;;11.40;57.75;99615.84;5053040;28;20501;-76
2021/05/03 06:46:04;;;;;;;23.60;14.07;;;;;;;11.64;56.93;99617.28;5043542;28;20414;-78
2021/05/03 06:48:30;;;;;;;14.13;11.70;;;;;;;11.64;57.47;99622.50;5041469;28;20052;-77
2021/05/03 06:50:57;;;;;;;16.75;10.77;;;;;;;11.80;56.98;99617.06;5038825;28;20049;-79
2021/05/03 06:53:25;;;;;;;15.18;10.02;;;;;;;11.80;57.02;99600.50;5040156;28;20053;-77
2021/05/03 06:55:51;;;;;;;17.30;10.48;;;;;;;12.38;55.28;99605.72;5052310;28;20045;-77
2021/05/03 06:58:18;;;;;;;19.83;9.18;;;;;;;12.31;55.30;99598.88;5042195;28;20052;-77
2021/05/03 07:00:44;;;;;;;16.67;7.75;;;;;;;12.41;54.57;99596.97;5044778;28;20080;-76
2021/05/03 07:03:12;;;;;;;13.88;7.10;;;;;;;12.44;54.92;99587.28;5072797;28;20098;-79
2021/05/03 07:05:40;;;;;;;8.00;5.38;;;;;;;12.81;53.14;99582.28;5044230;28;20095;-77
2021/05/03 07:08:10;;;;;;;7.20;5.38;;;;;;;12.92;52.70;99576.84;5026901;28;20408;-76
2021/05/03 07:10:39;;;;;;;8.45;5.00;;;;;;;13.60;50.18;99574.63;5042382;28;20061;-77
2021/05/03 07:13:05;;;;;;;5.15;3.88;;;;;;;13.41;50.32;99569.78;5040583;28;20125;-76
2021/05/03 07:15:31;;;;;;;7.38;3.95;;;;;;;13.46;50.33;99564.44;5043965;28;20473;-77
2021/05/03 07:17:58;;;;;;;8.45;4.00;;;;;;;13.71;49.80;99557.75;5073143;28;20564;-77
2021/05/03 07:20:25;;;;;;;6.53;3.08;;;;;;;13.74;48.87;99555.03;5055162;28;20382;-76
2021/05/03 07:22:52;;;;;;;7.47;3.10;;;;;;;14.12;47.30;99548.03;5054363;28;20494;-77
2021/05/03 07:25:18;;;;;;;8.10;3.83;;;;;;;14.42;46.16;99554.34;5041667;28;20037;-77
2021/05/03 07:27:45;;;;;;;7.72;3.53;;;;;;;14.15;46.35;99546.19;5062838;28;20045;-77
2021/05/03 07:30:13;;;;;;;7.03;3.50;;;;;;;14.67;45.19;99542.31;5029055;28;20048;-77
2021/05/03 07:32:40;;;;;;;7.35;2.88;;;;;;;15.15;43.70;99537.47;5063865;28;20146;-78
2021/05/03 07:35:08;;;;;;;5.00;2.30;;;;;;;15.62;42.11;99529.06;5077859;28;20064;-79
2021/05/03 07:37:35;;;;;;;8.30;2.00;;;;;;;15.91;41.25;99529.94;5037591;28;20049;-78
2021/05/03 07:40:04;;;;;;;9.98;2.83;;;;;;;16.63;39.47;99531.09;5062813;28;20040;-78
2021/05/03 07:42:32;;;;;;;4.90;1.77;;;;;;;16.25;38.75;99524.44;5074359;28;20052;-78
2021/05/03 07:45:08;;;;;;;7.97;2.45;;;;;;;15.85;38.83;99525.72;5050410;28;20136;-78
2021/05/03 07:47:35;;;;;;;3.92;2.20;;;;;;;16.61;38.17;99525.00;5052759;28;20514;-78
2021/05/03 07:50:03;;;;;;;4.00;2.17;;;;;;;15.62;40.02;99518.53;5047337;28;20072;-78
2021/05/03 07:52:31;;;;;;;4.65;1.98;;;;;;;15.92;40.24;99523.75;5023680;28;20079;-78
2021/05/03 07:54:59;;;;;;;5.85;2.17;;;;;;;15.64;41.33;99518.47;5072246;28;20075;-76
2021/05/03 07:57:27;;;;;;;4.45;2.10;;;;;;;14.72;43.90;99511.50;5048961;28;20051;-77
2021/05/03 07:59:55;;;;;;;2.33;2.13;;;;;;;14.24;45.33;99508.34;5031962;28;20148;-77
2021/05/03 08:02:22;;;;;;;2.75;2.00;;;;;;;14.76;45.28;99505.25;5027931;28;20052;-77
2021/05/03 08:04:52;;;;;;;8.48;2.30;;;;;;;14.57;44.75;99504.00;5054581;28;20041;-77
2021/05/03 08:07:20;;;;;;;7.00;2.35;;;;;;;14.44;45.61;99508.72;5072063;28;20041;-77
2021/05/03 08:09:47;;;;;;;6.45;2.35;;;;;;;14.28;45.94;99502.97;5043268;28;20057;-77
2021/05/03 08:12:13;;;;;;;5.68;1.92;;;;;;;14.72;45.29;99493.91;5027756;28;20045;-77
2021/05/03 08:14:43;;;;;;;7.25;2.17;;;;;;;14.97;45.20;99491.47;5027272;28;20500;-77
2021/05/03 08:17:12;;;;;;;3.75;1.77;;;;;;;15.25;44.88;99484.50;5070077;28;20057;-78
2021/05/03 08:19:39;;;;;;;4.82;2.13;;;;;;;15.11;44.54;99475.28;5071750;28;20076;-78
2021/05/03 08:22:05;;;;;;;7.40;2.03;;;;;;;15.45;43.75;99475.16;5020332;28;20115;-77
2021/05/03 08:24:35;;;;;;;6.95;1.67;;;;;;;14.63;45.51;99478.41;5080994;28;20096;-77
2021/05/03 08:27:04;;;;;;;4.05;1.70;;;;;;;14.52;45.93;99466.47;5029074;28;20468;-78
2021/05/03 08:29:31;;;;;;;3.95;1.65;;;;;;;14.18;46.57;99466.44;5053088;28;20539;-78
2021/05/03 08:31:58;;;;;;;5.07;1.65;;;;;;;14.47;45.70;99456.06;5041697;28;20045;-76
2021/05/03 08:34:26;;;;;;;3.92;1.77;;;;;;;14.38;46.18;99453.69;5053090;28;20334;-79
2021/05/03 08:36:56;;;;;;;7.63;2.70;;;;;;;14.54;46.39;99455.00;5016937;28;20071;-79
2021/05/03 08:39:25;;;;;;;2.65;1.75;;;;;;;14.09;46.52;99438.66;5038549;28;20041;-77
2021/05/03 08:41:56;;;;;;;3.53;1.60;;;;;;;13.82;48.23;99447.22;5046418;28;20053;-78
2021/05/03 08:44:26;;;;;;;5.60;1.98;;;;;;;13.72;48.80;99441.31;5058430;28;20045;-77
2021/05/03 08:46:55;;;;;;;4.13;1.77;;;;;;;13.36;49.04;99439.56;5054969;28;20045;-78
2021/05/03 08:54:44;;;;;;;4.15;1.98;;;;;;;13.31;48.71;99430.94;5068542;27;20124;-78
2021/05/03 08:57:14;;;;;;;2.05;1.20;;;;;;;13.24;48.76;99426.72;5069821;28;20552;-79
2021/05/03 08:59:41;;;;;;;1.63;1.30;;;;;;;12.92;49.43;99427.38;5042833;28;20056;-78
2021/05/03 09:02:13;;;;;;;2.20;1.27;;;;;;;13.10;48.80;99419.13;5046112;28;20040;-78
2021/05/03 09:04:43;;;;;;;3.00;1.20;;;;;;;13.10;48.78;99413.88;5047502;28;20055;-78
2021/05/03 09:07:11;;;;;;;6.07;1.30;;;;;;;13.47;49.82;99413.94;5023407;28;20058;-78
2021/05/03 09:09:47;;;;;;;3.95;1.60;;;;;;;13.00;52.33;99404.47;5003612;28;20045;-80
2021/05/03 09:12:22;;;;;;;3.28;1.17;;;;;;;13.01;54.58;99411.44;5016247;28;20804;-78
2021/05/03 09:14:54;;;;;;;2.70;1.70;;;;;;;12.64;55.09;99404.38;5020129;28;20046;-78
2021/05/03 09:17:43;;;;;;;1.90;1.30;;;;;;;12.98;55.75;99398.41;5087179;27;20116;-77
2021/05/03 09:20:16;;;;;;;4.53;1.15;;;;;;;13.32;53.76;99398.56;5072037;28;20049;-78
2021/05/03 09:25:36;;;;;;;2.70;1.10;;;;;;;13.03;53.08;99386.06;5059113;28;20056;-77
2021/05/03 09:28:11;;;;;;;1.50;1.20;;;;;;;12.71;53.48;99378.88;5045073;28;20055;-79
2021/05/03 09:30:41;;;;;;;1.75;1.20;;;;;;;12.24;54.85;99378.09;5061310;28;20059;-77
2021/05/03 09:33:14;;;;;;;2.67;1.08;;;;;;;12.28;55.13;99376.25;5024160;28;20045;-77
2021/05/03 09:36:03;;;;;;;2.50;1.02;;;;;;;12.61;53.44;99374.75;5077818;28;20048;-77
2021/05/03 09:38:30;;;;;;;3.72;1.38;;;;;;;11.97;54.84;99362.91;5061628;28;20136;-78
2021/05/03 09:41:19;;;;;;;3.50;1.23;;;;;;;11.76;55.92;99355.41;5059492;28;20056;-77
2021/05/03 09:43:51;;;;;;;3.67;1.58;;;;;;;11.47;58.10;99347.16;5067617;28;20045;-77
2021/05/03 09:46:45;;;;;;;1.50;1.10;;;;;;;12.10;56.86;99343.44;5039765;28;20063;-78
2021/05/03 09:49:30;;;;;;;2.72;1.35;;;;;;;12.49;55.28;99343.53;5005407;28;20056;-80
2021/05/03 09:52:02;;;;;;;2.20;1.40;;;;;;;12.78;55.05;99332.44;5034943;28;20139;-77
2021/05/03 09:54:30;;;;;;;2.55;1.42;;;;;;;13.15;54.58;99324.63;5027781;28;20155;-79
2021/05/03 09:57:07;;;;;;;6.85;1.80;;;;;;;13.04;57.17;99307.34;5049548;28;20392;-78
2021/05/03 09:59:36;;;;;;;3.53;1.88;;;;;;;13.00;55.96;99308.31;5058903;28;20483;-78
2021/05/03 10:02:14;;;;;;;3.50;2.00;;;;;;;12.91;57.00;99305.91;5071618;28;20128;-79
2021/05/03 10:05:05;;;;;;;2.80;2.05;;;;;;;13.41;55.97;99296.00;5058069;28;20067;-78
2021/05/03 10:07:36;;;;;;;1.48;1.38;;;;;;;12.81;56.83;99288.66;5024819;28;20040;-78
2021/05/03 10:10:09;;;;;;;3.15;2.10;;;;;;;12.70;57.55;99279.34;5042716;28;20045;-79
2021/05/03 10:12:36;;;;;;;3.30;2.00;;;;;;;12.98;57.22;99273.41;5040098;28;20114;-76
2021/05/03 10:15:09;;;;;;;3.80;1.90;;;;;;;12.38;58.57;99259.94;5066571;28;20116;-77
2021/05/03 10:17:40;;;;;;;6.35;2.05;;;;;;;12.56;57.69;99254.31;5027619;28;20115;-78
2021/05/03 10:20:09;;;;;;;1.70;1.60;;;;;;;11.95;60.15;99246.00;5042175;27;20479;-78
2021/05/03 10:22:36;;;;;;;3.88;1.90;;;;;;;11.94;60.07;99237.28;5044469;28;20470;-77
2021/05/03 10:25:07;;;;;;;4.30;2.00;;;;;;;12.00;60.82;99231.06;5041498;28;20084;-78
2021/05/03 10:27:38;;;;;;;8.05;2.35;;;;;;;11.83;61.86;99214.84;5036599;28;20060;-77
2021/05/03 10:30:15;;;;;;;2.10;1.90;;;;;;;11.95;60.76;99211.97;5013419;28;20054;-78
2021/05/03 10:32:44;;;;;;;6.75;2.30;;;;;;;11.74;62.35;99213.28;5010503;28;20052;-77
2021/05/03 10:35:26;;;;;;;6.20;2.60;;;;;;;11.81;63.18;99199.16;5052286;28;20053;-78
2021/05/03 10:37:56;;;;;;;3.67;2.63;;;;;;;11.44;64.38;99182.44;5004041;28;20056;-78
2021/05/03 10:40:23;;;;;;;6.35;2.60;;;;;;;11.79;63.45;99175.66;5023566;28;20041;-77
2021/05/03 10:43:02;;;;;;;4.55;2.55;;;;;;;12.11;62.10;99171.50;5032114;28;20079;-77
2021/05/03 10:48:55;;;;;;;8.23;3.38;;;;;;;11.36;64.39;99153.84;5020668;28;20068;-77
2021/05/03 10:51:34;;;;;;;5.32;2.55;;;;;;;11.39;65.00;99143.31;5059719;27;20048;-78
2021/05/03 10:54:26;;;;;;;4.97;3.58;;;;;;;11.06;66.45;99130.88;5023745;28;20331;-78
2021/05/03 10:57:01;;;;;;;3.60;3.22;;;;;;;10.78;68.13;99120.06;5049437;28;20096;-78
2021/05/03 11:00:03;;;;;;;6.20;4.20;;;;;;;10.77;68.84;99113.09;5017447;28;20069;-77
2021/05/03 11:02:39;;;;;;;8.00;4.18;;;;;;;10.24;70.95;99108.75;5031495;28;20152;-78
2021/05/03 11:05:10;;;;;;;5.82;4.40;;;;;;;10.24;72.17;99095.69;5016830;28;20089;-78
2021/05/03 11:08:05;;;;;;;11.00;5.50;;;;;;;10.38;72.84;99097.22;5018860;28;20060;-80
2021/05/03 11:11:09;;;;;;;8.93;4.65;;;;;;;11.05;71.69;99101.25;5029054;28;20057;-77
2021/05/03 11:13:47;;;;;;;4.50;3.45;;;;;;;10.24;70.19;99091.34;4957218;28;20130;-78
2021/05/03 11:16:26;;;;;;;4.28;3.10;;;;;;;10.27;70.06;99078.22;4967338;28;20121;-77
2021/05/03 11:18:57;;;;;;;4.45;2.45;;;;;;;10.15;69.19;99072.31;4976309;28;20471;-77
2021/05/03 11:21:46;;;;;;;3.03;2.53;;;;;;;10.44;69.49;99059.69;4971307;28;20061;-78
2021/05/03 11:24:31;;;;;;;3.42;1.73;;;;;;;10.33;68.81;99051.16;4979123;28;20583;-77
2021/05/03 11:27:06;;;;;;;3.45;2.83;;;;;;;10.08;68.25;99043.69;4978079;28;20046;-76
2021/05/03 11:29:45;;;;;;;4.28;2.10;;;;;;;10.28;69.20;99034.72;4966736;28;20529;-78
2021/05/03 11:32:13;;;;;;;4.07;2.45;;;;;;;10.66;68.00;99036.66;4979120;28;20057;-74
2021/05/03 11:34:46;;;;;;;3.25;2.50;;;;;;;10.58;70.09;99028.09;4955225;28;20092;-78
2021/05/03 11:37:17;;;;;;;3.38;2.45;;;;;;;10.15;70.23;99015.78;4969659;28;20169;-77
2021/05/03 11:39:58;;;;;;;4.65;2.45;;;;;;;10.16;69.38;98993.19;4966085;28;20146;-77
2021/05/03 11:42:53;;;;;;;3.15;2.63;;;;;;;9.95;71.01;98983.91;4965238;28;20363;-78
2021/05/03 11:45:26;;;;;;;6.75;3.55;;;;;;;10.55;70.14;98983.78;5029307;28;20476;-78
2021/05/03 11:47:55;;;;;;;3.97;2.92;;;;;;;10.34;70.80;98965.00;5050949;28;20050;-79
2021/05/03 11:50:28;;;;;;;6.13;3.40;;;;;;;10.25;70.96;98966.91;5022286;28;20045;-78
2021/05/03 11:52:59;;;;;;;5.32;2.85;;;;;;;10.17;71.60;98951.38;5037975;28;20558;-77
2021/05/03 11:55:27;;;;;;;3.63;2.75;;;;;;;10.03;71.63;98940.28;5044734;28;20045;-77
2021/05/03 11:57:54;;;;;;;4.75;3.40;;;;;;;10.08;72.71;98934.09;5025368;28;20048;-78
2021/05/03 12:00:23;;;;;;;7.35;3.33;;;;;;;9.78;73.45;98928.56;5048804;28;20067;-79
2021/05/03 12:03:06;;;;;;;6.18;3.25;;;;;;;10.03;73.69;98916.78;5031039;28;20708;-77
2021/05/03 12:05:34;;;;;;;4.93;3.80;;;;;;;9.96;73.49;98909.97;5008149;28;20095;-79
2021/05/03 12:08:16;;;;;;;5.68;3.58;;;;;;;9.99;73.86;98905.56;5024591;28;20099;-78
2021/05/03 12:10:44;;;;;;;5.93;3.35;;;;;;;9.49;75.02;98901.19;5055056;28;20069;-78
2021/05/03 12:13:15;;;;;;;5.88;3.95;;;;;;;9.93;74.51;98890.00;4997167;28;20048;-79
2021/05/03 12:15:43;;;;;;;7.60;4.70;;;;;;;9.98;75.25;98893.38;5026552;28;20103;-78